Time;durP1;ratioP1;P1;durP2;ratioP2;P2;SDS_P1;SDS_P2;PMS_P1;PMS_P2;Temp;Humidity;BMP_temperature;BMP_pressure;BME280_temperature;BME280_humidity;BME280_pressure;Samples;Min_cycle;Max_cycle;Signal;HPM_P1;HPM_P2
2022/07/17 00:00:42;;;;;;;;;;;;;;;;;;5109138;27;19919;-83
2022/07/17 00:03:08;;;;;;;;;;;;;;;;;;5100254;27;19999;-82
2022/07/17 00:05:34;;;;;;;;;;;;;;;;;;5096482;28;19970;-83
2022/07/17 00:08:00;;;;;;;;;;;;;;;;;;5117335;27;19967;-82
2022/07/17 00:10:26;;;;;;;;;;;;;;;;;;5101761;28;19920;-83
2022/07/17 00:12:52;;;;;;;;;;;;;;;;;;5123379;27;20556;-83
2022/07/17 00:15:19;;;;;;;;;;;;;;;;;;5110652;27;20289;-83
2022/07/17 00:17:45;;;;;;;;;;;;;;;;;;5093615;28;19924;-83
2022/07/17 00:20:11;;;;;;;;;;;;;;;;;;5100876;28;20023;-83
2022/07/17 00:22:36;;;;;;;;;;;;;;;;;;5112719;27;19923;-83
2022/07/17 00:25:02;;;;;;;;;;;;;;;;;;5108221;28;19978;-83
2022/07/17 00:27:28;;;;;;;;;;;;;;;;;;5107742;28;19966;-83
2022/07/17 00:29:55;;;;;;;;;;;;;;;;;;5095458;28;19923;-83
2022/07/17 00:32:23;;;;;;;;;;;;;;;;;;5131695;27;20339;-82
2022/07/17 00:34:49;;;;;;;;;;;;;;;;;;5098225;28;19963;-83
2022/07/17 00:37:15;;;;;;;;;;;;;;;;;;5098958;27;19970;-82
2022/07/17 00:39:41;;;;;;;;;;;;;;;;;;5094034;28;19920;-83
2022/07/17 00:42:07;;;;;;;;;;;;;;;;;;5093954;28;19962;-82
2022/07/17 00:44:32;;;;;;;;;;;;;;;;;;5101917;27;19924;-83
2022/07/17 00:46:58;;;;;;;;;;;;;;;;;;5095809;28;19955;-82
2022/07/17 00:49:24;;;;;;;;;;;;;;;;;;5114910;27;19919;-83
2022/07/17 00:51:50;;;;;;;;;;;;;;;;;;5102996;27;19920;-82
2022/07/17 00:54:16;;;;;;;;;;;;;;;;;;5106976;27;19954;-82
2022/07/17 00:56:42;;;;;;;;;;;;;;;;;;5123509;27;19919;-82
2022/07/17 00:59:08;;;;;;;;;;;;;;;;;;5100909;27;19926;-82
2022/07/17 01:01:34;;;;;;;;;;;;;;;;;;5096931;28;19965;-82
2022/07/17 01:04:00;;;;;;;;;;;;;;;;;;5102212;27;19974;-82
2022/07/17 01:06:26;;;;;;;;;;;;;;;;;;5093107;28;20364;-83
2022/07/17 01:08:52;;;;;;;;;;;;;;;;;;5105965;27;19920;-84
2022/07/17 01:11:18;;;;;;;;;;;;;;;;;;5107972;28;21119;-83
2022/07/17 01:13:44;;;;;;;;;;;;;;;;;;5105890;28;19919;-83
2022/07/17 01:16:10;;;;;;;;;;;;;;;;;;5104605;28;19927;-82
2022/07/17 01:18:36;;;;;;;;;;;;;;;;;;5120631;27;19919;-83
2022/07/17 01:21:02;;;;;;;;;;;;;;;;;;5103573;27;19925;-83
2022/07/17 01:23:28;;;;;;;;;;;;;;;;;;5111260;27;20346;-83
2022/07/17 01:25:54;;;;;;;;;;;;;;;;;;5093746;28;20350;-83
2022/07/17 01:28:19;;;;;;;;;;;;;;;;;;5110378;27;20364;-85
2022/07/17 01:30:45;;;;;;;;;;;;;;;;;;5110862;27;19923;-83
2022/07/17 01:33:11;;;;;;;;;;;;;;;;;;5107450;28;19924;-83
2022/07/17 01:35:37;;;;;;;;;;;;;;;;;;5092129;28;20298;-82
2022/07/17 01:38:03;;;;;;;;;;;;;;;;;;5102018;27;19930;-82
2022/07/17 01:40:29;;;;;;;;;;;;;;;;;;5109769;28;19923;-83
2022/07/17 01:42:55;;;;;;;;;;;;;;;;;;5092101;28;20385;-82
2022/07/17 01:45:21;;;;;;;;;;;;;;;;;;5099606;28;20325;-82
2022/07/17 01:47:47;;;;;;;;;;;;;;;;;;5094299;28;19919;-83
2022/07/17 01:50:13;;;;;;;;;;;;;;;;;;5103614;28;20003;-82
2022/07/17 01:52:39;;;;;;;;;;;;;;;;;;5097122;28;19942;-82
2022/07/17 01:55:05;;;;;;;;;;;;;;;;;;5113092;27;19992;-81
2022/07/17 01:57:31;;;;;;;;;;;;;;;;;;5121686;27;19982;-81
2022/07/17 01:59:57;;;;;;;;;;;;;;;;;;5105921;27;19966;-81
2022/07/17 02:02:22;;;;;;;;;;;;;;;;;;5101636;28;19943;-82
2022/07/17 02:04:48;;;;;;;;;;;;;;;;;;5090850;28;19989;-82
2022/07/17 02:07:14;;;;;;;;;;;;;;;;;;5075126;28;20324;-83
2022/07/17 02:09:40;;;;;;;;;;;;;;;;;;5110980;28;20422;-83
2022/07/17 02:12:06;;;;;;;;;;;;;;;;;;5110322;28;20286;-82
2022/07/17 02:14:32;;;;;;;;;;;;;;;;;;5091671;28;19978;-82
2022/07/17 02:16:58;;;;;;;;;;;;;;;;;;5108696;28;20074;-83
2022/07/17 02:19:24;;;;;;;;;;;;;;;;;;5116064;28;19920;-80
2022/07/17 02:21:50;;;;;;;;;;;;;;;;;;5100135;28;20386;-83
2022/07/17 02:24:16;;;;;;;;;;;;;;;;;;5123013;28;20362;-83
2022/07/17 02:26:42;;;;;;;;;;;;;;;;;;5108144;27;20371;-83
2022/07/17 02:29:08;;;;;;;;;;;;;;;;;;5116269;27;20211;-82
2022/07/17 02:31:34;;;;;;;;;;;;;;;;;;5107147;28;19920;-82
2022/07/17 02:34:00;;;;;;;;;;;;;;;;;;5096088;28;19962;-82
2022/07/17 02:36:26;;;;;;;;;;;;;;;;;;5107026;28;19934;-80
2022/07/17 02:38:51;;;;;;;;;;;;;;;;;;5112107;27;20010;-81
2022/07/17 02:41:17;;;;;;;;;;;;;;;;;;5114659;27;19923;-82
2022/07/17 02:43:44;;;;;;;;;;;;;;;;;;5128715;27;19919;-82
2022/07/17 02:46:10;;;;;;;;;;;;;;;;;;5118048;27;19919;-86
2022/07/17 02:48:35;;;;;;;;;;;;;;;;;;5109616;27;19923;-84
2022/07/17 02:51:01;;;;;;;;;;;;;;;;;;5118940;27;19984;-84
2022/07/17 02:53:27;;;;;;;;;;;;;;;;;;5101928;28;19986;-84
2022/07/17 02:55:53;;;;;;;;;;;;;;;;;;5113385;28;19920;-84
2022/07/17 02:58:19;;;;;;;;;;;;;;;;;;5095164;28;19961;-84
2022/07/17 03:00:45;;;;;;;;;;;;;;;;;;5112341;28;19931;-84
2022/07/17 03:03:11;;;;;;;;;;;;;;;;;;5112799;28;20543;-84
2022/07/17 03:05:37;;;;;;;;;;;;;;;;;;5115699;28;19927;-88
2022/07/17 03:08:03;;;;;;;;;;;;;;;;;;5115339;27;19919;-85
2022/07/17 03:10:29;;;;;;;;;;;;;;;;;;5112340;27;20380;-86
2022/07/17 03:12:55;;;;;;;;;;;;;;;;;;5111238;27;20328;-86
2022/07/17 03:15:21;;;;;;;;;;;;;;;;;;5096554;27;20320;-86
2022/07/17 03:17:47;;;;;;;;;;;;;;;;;;5102638;28;19927;-87
2022/07/17 03:20:13;;;;;;;;;;;;;;;;;;5095386;27;19920;-88
2022/07/17 03:22:39;;;;;;;;;;;;;;;;;;5099743;28;19920;-87
2022/07/17 03:25:05;;;;;;;;;;;;;;;;;;5115130;27;19931;-86
2022/07/17 03:27:31;;;;;;;;;;;;;;;;;;5107743;27;19919;-87
2022/07/17 03:29:57;;;;;;;;;;;;;;;;;;5110401;27;19927;-86
2022/07/17 03:32:23;;;;;;;;;;;;;;;;;;5097827;27;19928;-85
2022/07/17 03:34:49;;;;;;;;;;;;;;;;;;5106972;27;19920;-88
2022/07/17 03:37:15;;;;;;;;;;;;;;;;;;5096377;28;19919;-87
2022/07/17 03:39:41;;;;;;;;;;;;;;;;;;5097639;28;19923;-87
2022/07/17 03:42:07;;;;;;;;;;;;;;;;;;5096383;28;19987;-86
2022/07/17 03:44:33;;;;;;;;;;;;;;;;;;5107728;27;19985;-87
2022/07/17 03:46:59;;;;;;;;;;;;;;;;;;5103062;27;19919;-86
2022/07/17 03:49:25;;;;;;;;;;;;;;;;;;5110960;27;20010;-88
2022/07/17 03:51:51;;;;;;;;;;;;;;;;;;5094973;28;20397;-84
2022/07/17 03:54:17;;;;;;;;;;;;;;;;;;5111578;27;19945;-87
2022/07/17 03:56:43;;;;;;;;;;;;;;;;;;5118673;27;20324;-85
2022/07/17 03:59:09;;;;;;;;;;;;;;;;;;5102156;28;20347;-85
2022/07/17 04:01:35;;;;;;;;;;;;;;;;;;5107913;28;20378;-86
2022/07/17 04:04:01;;;;;;;;;;;;;;;;;;5102390;27;20278;-86
2022/07/17 04:06:27;;;;;;;;;;;;;;;;;;5103885;28;20383;-86
2022/07/17 04:08:53;;;;;;;;;;;;;;;;;;5110638;27;19920;-85
2022/07/17 04:11:20;;;;;;;;;;;;;;;;;;5108345;28;19926;-87
2022/07/17 04:13:46;;;;;;;;;;;;;;;;;;5100076;28;19928;-88
2022/07/17 04:16:11;;;;;;;;;;;;;;;;;;5120455;27;19926;-88
2022/07/17 04:18:38;;;;;;;;;;;;;;;;;;5113175;28;20021;-87
2022/07/17 04:21:04;;;;;;;;;;;;;;;;;;5108421;28;19999;-87
2022/07/17 04:23:31;;;;;;;;;;;;;;;;;;5078956;28;19978;-86
2022/07/17 04:25:57;;;;;;;;;;;;;;;;;;5112488;27;19919;-87
2022/07/17 04:28:23;;;;;;;;;;;;;;;;;;5102578;28;19920;-87
2022/07/17 04:30:48;;;;;;;;;;;;;;;;;;5093334;28;20295;-87
2022/07/17 04:33:14;;;;;;;;;;;;;;;;;;5098965;28;19924;-87
2022/07/17 04:35:40;;;;;;;;;;;;;;;;;;5111851;27;19959;-87
2022/07/17 04:38:06;;;;;;;;;;;;;;;;;;5099385;28;19919;-86
2022/07/17 04:40:32;;;;;;;;;;;;;;;;;;5109141;27;20370;-87
2022/07/17 04:42:58;;;;;;;;;;;;;;;;;;5092949;28;20286;-85
2022/07/17 04:45:24;;;;;;;;;;;;;;;;;;5112102;27;19930;-88
2022/07/17 04:47:50;;;;;;;;;;;;;;;;;;5095278;28;19919;-87
2022/07/17 04:50:16;;;;;;;;;;;;;;;;;;5117848;27;19923;-86
2022/07/17 04:52:42;;;;;;;;;;;;;;;;;;5096176;27;19978;-86
2022/07/17 04:55:08;;;;;;;;;;;;;;;;;;5111097;27;20018;-88
2022/07/17 04:57:34;;;;;;;;;;;;;;;;;;5112352;28;19920;-83
2022/07/17 05:00:00;;;;;;;;;;;;;;;;;;5102155;28;19919;-83
2022/07/17 05:02:26;;;;;;;;;;;;;;;;;;5128482;27;19924;-84
2022/07/17 05:04:52;;;;;;;;;;;;;;;;;;5100605;27;19927;-90
2022/07/17 05:07:18;;;;;;;;;;;;;;;;;;5100039;28;19934;-96
2022/07/17 05:09:44;;;;;;;;;;;;;;;;;;5117447;27;19920;-86
2022/07/17 05:12:10;;;;;;;;;;;;;;;;;;5109960;28;20317;-94
2022/07/17 05:14:35;;;;;;;;;;;;;;;;;;5084535;27;20001;-84
2022/07/17 05:17:02;;;;;;;;;;;;;;;;;;5100554;27;19939;-89
2022/07/17 05:19:28;;;;;;;;;;;;;;;;;;5094245;27;19920;-87
2022/07/17 05:21:54;;;;;;;;;;;;;;;;;;5098692;28;19927;-93
2022/07/17 05:24:20;;;;;;;;;;;;;;;;;;5094112;28;19920;-84
2022/07/17 05:26:46;;;;;;;;;;;;;;;;;;5116626;27;20010;-92
2022/07/17 05:29:12;;;;;;;;;;;;;;;;;;5108706;28;19927;-88
2022/07/17 05:31:38;;;;;;;;;;;;;;;;;;5103491;27;19923;-91
2022/07/17 05:34:04;;;;;;;;;;;;;;;;;;5111134;28;19924;-82
2022/07/17 05:36:30;;;;;;;;;;;;;;;;;;5092213;28;20006;-90
2022/07/17 05:38:56;;;;;;;;;;;;;;;;;;5117045;27;20015;-80
2022/07/17 05:41:22;;;;;;;;;;;;;;;;;;5119558;27;19919;-82
2022/07/17 05:43:48;;;;;;;;;;;;;;;;;;5116755;27;19920;-81
2022/07/17 05:46:14;;;;;;;;;;;;;;;;;;5109000;28;20018;-85
2022/07/17 05:48:39;;;;;;;;;;;;;;;;;;5110860;28;19990;-86
2022/07/17 05:51:05;;;;;;;;;;;;;;;;;;5110530;28;20366;-86
2022/07/17 05:53:31;;;;;;;;;;;;;;;;;;5095478;28;20000;-83
2022/07/17 05:55:57;;;;;;;;;;;;;;;;;;5115275;27;19927;-81
2022/07/17 05:58:23;;;;;;;;;;;;;;;;;;5103411;28;19966;-82
2022/07/17 06:00:49;;;;;;;;;;;;;;;;;;5077456;28;19927;-87
2022/07/17 06:03:15;;;;;;;;;;;;;;;;;;5110297;28;20006;-83
2022/07/17 06:05:41;;;;;;;;;;;;;;;;;;5126767;27;20009;-91
2022/07/17 06:08:07;;;;;;;;;;;;;;;;;;5093830;28;19924;-81
2022/07/17 06:10:34;;;;;;;;;;;;;;;;;;5104458;28;19920;-92
2022/07/17 06:13:00;;;;;;;;;;;;;;;;;;5107391;28;19926;-85
2022/07/17 06:15:26;;;;;;;;;;;;;;;;;;5095181;28;19924;-85
2022/07/17 06:17:52;;;;;;;;;;;;;;;;;;5110436;28;19919;-77
2022/07/17 06:20:18;;;;;;;;;;;;;;;;;;5110422;28;19920;-86
2022/07/17 06:22:44;;;;;;;;;;;;;;;;;;5093055;28;19931;-83
2022/07/17 06:25:10;;;;;;;;;;;;;;;;;;5098591;28;19942;-81
2022/07/17 06:27:36;;;;;;;;;;;;;;;;;;5102166;27;20354;-84
2022/07/17 06:30:02;;;;;;;;;;;;;;;;;;5102994;28;20366;-88
2022/07/17 06:32:28;;;;;;;;;;;;;;;;;;5114668;28;20002;-86
2022/07/17 06:34:54;;;;;;;;;;;;;;;;;;5104414;28;19920;-91
2022/07/17 06:37:20;;;;;;;;;;;;;;;;;;5124945;28;19926;-88
2022/07/17 06:39:46;;;;;;;;;;;;;;;;;;5106892;28;20007;-87
2022/07/17 06:42:12;;;;;;;;;;;;;;;;;;5101301;28;19920;-82
2022/07/17 06:44:38;;;;;;;;;;;;;;;;;;5111212;28;20048;-83
2022/07/17 06:47:04;;;;;;;;;;;;;;;;;;5113448;28;19927;-87
2022/07/17 06:49:30;;;;;;;;;;;;;;;;;;5110280;28;19973;-83
2022/07/17 06:51:55;;;;;;;;;;;;;;;;;;5108218;28;20447;-81
2022/07/17 06:54:25;;;;;;;;;;;;;;;;;;5110889;28;19927;-81
2022/07/17 06:56:51;;;;;;;;;;;;;;;;;;5120818;28;19924;-89
2022/07/17 06:59:17;;;;;;;;;;;;;;;;;;5120741;28;19919;-80
2022/07/17 07:01:43;;;;;;;;;;;;;;;;;;5112210;28;19920;-82
2022/07/17 07:04:09;;;;;;;;;;;;;;;;;;5108679;28;19974;-82
2022/07/17 07:06:35;;;;;;;;;;;;;;;;;;5101364;28;19924;-85
2022/07/17 07:09:01;;;;;;;;;;;;;;;;;;5105831;28;19920;-85
2022/07/17 07:11:27;;;;;;;;;;;;;;;;;;5114618;27;20455;-81
2022/07/17 07:13:53;;;;;;;;;;;;;;;;;;5100376;27;19927;-81
2022/07/17 07:16:20;;;;;;;;;;;;;;;;;;5109280;27;19920;-81
2022/07/17 07:18:46;;;;;;;;;;;;;;;;;;5114068;28;19947;-78
2022/07/17 07:21:12;;;;;;;;;;;;;;;;;;5112378;27;20354;-80
2022/07/17 07:23:38;;;;;;;;;;;;;;;;;;5097219;28;20398;-80
2022/07/17 07:26:04;;;;;;;;;;;;;;;;;;5106716;27;20057;-84
2022/07/17 07:28:30;;;;;;;;;;;;;;;;;;5111374;28;19977;-89
2022/07/17 07:30:55;;;;;;;;;;;;;;;;;;5109989;27;19931;-80
2022/07/17 07:33:21;;;;;;;;;;;;;;;;;;5125474;27;19931;-84
2022/07/17 07:35:47;;;;;;;;;;;;;;;;;;5104304;28;19927;-83
2022/07/17 07:38:13;;;;;;;;;;;;;;;;;;5111519;28;19923;-81
2022/07/17 07:40:39;;;;;;;;;;;;;;;;;;5117796;27;19927;-87
2022/07/17 07:43:05;;;;;;;;;;;;;;;;;;5133450;27;20011;-86
2022/07/17 07:45:31;;;;;;;;;;;;;;;;;;5101287;28;19919;-87
2022/07/17 07:47:57;;;;;;;;;;;;;;;;;;5113129;28;19920;-89
2022/07/17 07:50:23;;;;;;;;;;;;;;;;;;5106280;27;19924;-83
2022/07/17 07:52:49;;;;;;;;;;;;;;;;;;5119812;27;19924;-90
2022/07/17 07:55:15;;;;;;;;;;;;;;;;;;5112632;27;19923;-90
2022/07/17 07:57:41;;;;;;;;;;;;;;;;;;5094399;28;19931;-80
2022/07/17 08:00:07;;;;;;;;;;;;;;;;;;5095390;28;19919;-76
2022/07/17 08:02:33;;;;;;;;;;;;;;;;;;5105039;27;19955;-81
2022/07/17 08:04:59;;;;;;;;;;;;;;;;;;5123974;27;19920;-93
2022/07/17 08:07:25;;;;;;;;;;;;;;;;;;5103397;28;20403;-92
2022/07/17 08:09:51;;;;;;;;;;;;;;;;;;5112243;27;19923;-85
2022/07/17 08:12:17;;;;;;;;;;;;;;;;;;5115075;27;19920;-87
2022/07/17 08:14:43;;;;;;;;;;;;;;;;;;5109503;27;19919;-83
2022/07/17 08:17:09;;;;;;;;;;;;;;;;;;5085035;28;20386;-84
2022/07/17 08:19:35;;;;;;;;;;;;;;;;;;5109913;28;19924;-81
2022/07/17 08:22:01;;;;;;;;;;;;;;;;;;5098094;28;19919;-83
2022/07/17 08:24:27;;;;;;;;;;;;;;;;;;5110213;27;20297;-89
2022/07/17 08:26:53;;;;;;;;;;;;;;;;;;5097219;27;19942;-84
2022/07/17 08:29:19;;;;;;;;;;;;;;;;;;5104927;28;20340;-80
2022/07/17 08:31:44;;;;;;;;;;;;;;;;;;5110399;28;19916;-83
2022/07/17 08:34:11;;;;;;;;;;;;;;;;;;5113024;27;20006;-87
2022/07/17 08:36:37;;;;;;;;;;;;;;;;;;5114396;27;20274;-91
2022/07/17 08:39:03;;;;;;;;;;;;;;;;;;5116170;27;19920;-83
2022/07/17 08:41:28;;;;;;;;;;;;;;;;;;5111596;28;20382;-92
2022/07/17 08:43:54;;;;;;;;;;;;;;;;;;5120634;27;19919;-85
2022/07/17 08:46:20;;;;;;;;;;;;;;;;;;5120992;27;20362;-87
2022/07/17 08:48:47;;;;;;;;;;;;;;;;;;5127061;27;20282;-86
2022/07/17 08:51:13;;;;;;;;;;;;;;;;;;5104668;28;19943;-86
2022/07/17 08:53:40;;;;;;;;;;;;;;;;;;5099698;28;20354;-86
2022/07/17 08:56:06;;;;;;;;;;;;;;;;;;5110668;28;20305;-92
2022/07/17 08:58:32;;;;;;;;;;;;;;;;;;5100402;28;20006;-84
2022/07/17 09:00:58;;;;;;;;;;;;;;;;;;5095074;28;19966;-83
2022/07/17 09:03:24;;;;;;;;;;;;;;;;;;5107681;28;20359;-81
2022/07/17 09:05:50;;;;;;;;;;;;;;;;;;5093821;28;20340;-81
2022/07/17 09:08:16;;;;;;;;;;;;;;;;;;5093521;28;20003;-81
2022/07/17 09:10:42;;;;;;;;;;;;;;;;;;5107738;28;19927;-82
2022/07/17 09:13:08;;;;;;;;;;;;;;;;;;5093951;28;20369;-82
2022/07/17 09:15:34;;;;;;;;;;;;;;;;;;5101158;28;20011;-82
2022/07/17 09:18:00;;;;;;;;;;;;;;;;;;5104168;28;19943;-77
2022/07/17 09:20:26;;;;;;;;;;;;;;;;;;5100608;28;19924;-75
2022/07/17 09:22:52;;;;;;;;;;;;;;;;;;5093121;28;19955;-78
2022/07/17 09:25:17;;;;;;;;;;;;;;;;;;5092996;28;19920;-77
2022/07/17 09:27:43;;;;;;;;;;;;;;;;;;5092407;28;19920;-76
2022/07/17 09:30:10;;;;;;;;;;;;;;;;;;5093449;28;20011;-81
2022/07/17 09:32:36;;;;;;;;;;;;;;;;;;5092276;28;20452;-80
2022/07/17 09:35:02;;;;;;;;;;;;;;;;;;5109736;28;19923;-80
2022/07/17 09:37:28;;;;;;;;;;;;;;;;;;5092887;28;19919;-77
2022/07/17 09:39:54;;;;;;;;;;;;;;;;;;5130675;27;20294;-77
2022/07/17 09:42:20;;;;;;;;;;;;;;;;;;5102425;28;19965;-75
2022/07/17 09:44:46;;;;;;;;;;;;;;;;;;5104488;28;19919;-77
2022/07/17 09:47:12;;;;;;;;;;;;;;;;;;5098398;28;19928;-75
2022/07/17 09:49:38;;;;;;;;;;;;;;;;;;5115317;27;19924;-79
2022/07/17 09:52:04;;;;;;;;;;;;;;;;;;5100379;28;19920;-77
2022/07/17 09:54:30;;;;;;;;;;;;;;;;;;5098488;28;19964;-74
2022/07/17 09:56:56;;;;;;;;;;;;;;;;;;5119789;27;19926;-76
2022/07/17 09:59:22;;;;;;;;;;;;;;;;;;5099374;28;20426;-73
2022/07/17 10:01:49;;;;;;;;;;;;;;;;;;5100297;28;20293;-73
2022/07/17 10:04:15;;;;;;;;;;;;;;;;;;5111530;28;20377;-76
2022/07/17 10:06:41;;;;;;;;;;;;;;;;;;5110327;28;19926;-78
2022/07/17 10:09:07;;;;;;;;;;;;;;;;;;5108007;27;19980;-77
2022/07/17 10:11:33;;;;;;;;;;;;;;;;;;5096156;28;19924;-77
2022/07/17 10:13:59;;;;;;;;;;;;;;;;;;5110719;27;19962;-77
2022/07/17 10:16:25;;;;;;;;;;;;;;;;;;5109866;28;19927;-79
2022/07/17 10:18:54;;;;;;;;;;;;;;;;;;5109124;28;19975;-77
2022/07/17 10:21:21;;;;;;;;;;;;;;;;;;5108272;28;19920;-76
2022/07/17 10:23:47;;;;;;;;;;;;;;;;;;5110310;28;19927;-77
2022/07/17 10:26:13;;;;;;;;;;;;;;;;;;5114848;27;19920;-76
2022/07/17 10:28:39;;;;;;;;;;;;;;;;;;5102738;28;19972;-77
2022/07/17 10:31:05;;;;;;;;;;;;;;;;;;5091190;28;19924;-77
2022/07/17 10:33:31;;;;;;;;;;;;;;;;;;5100547;28;19920;-76
2022/07/17 10:35:59;;;;;;;;;;;;;;;;;;5105242;27;19924;-77
2022/07/17 10:38:25;;;;;;;;;;;;;;;;;;5117057;28;20437;-76
2022/07/17 10:40:51;;;;;;;;;;;;;;;;;;5118184;28;20006;-76
2022/07/17 10:43:17;;;;;;;;;;;;;;;;;;5108456;28;19984;-77
2022/07/17 10:45:43;;;;;;;;;;;;;;;;;;5106461;28;19947;-77
2022/07/17 10:48:09;;;;;;;;;;;;;;;;;;5112065;28;19923;-79
2022/07/17 10:50:35;;;;;;;;;;;;;;;;;;5113681;27;19980;-76
2022/07/17 10:53:02;;;;;;;;;;;;;;;;;;5114652;28;19919;-78
2022/07/17 10:55:28;;;;;;;;;;;;;;;;;;5113112;28;19919;-77
2022/07/17 10:57:53;;;;;;;;;;;;;;;;;;5111020;28;19926;-78
2022/07/17 11:00:19;;;;;;;;;;;;;;;;;;5137730;27;19920;-77
2022/07/17 11:02:45;;;;;;;;;;;;;;;;;;5106844;28;19928;-77
2022/07/17 11:05:14;;;;;;;;;;;;;;;;;;5110889;27;20294;-76
2022/07/17 11:07:40;;;;;;;;;;;;;;;;;;5116405;27;19927;-75
2022/07/17 11:10:06;;;;;;;;;;;;;;;;;;5108852;28;20367;-75
2022/07/17 11:12:32;;;;;;;;;;;;;;;;;;5099737;28;20378;-77
2022/07/17 11:14:58;;;;;;;;;;;;;;;;;;5118614;27;20001;-77
2022/07/17 11:17:24;;;;;;;;;;;;;;;;;;5119139;27;20053;-76
2022/07/17 11:19:50;;;;;;;;;;;;;;;;;;5111728;27;19926;-76
2022/07/17 11:22:17;;;;;;;;;;;;;;;;;;5122403;27;19935;-76
2022/07/17 11:24:43;;;;;;;;;;;;;;;;;;5102770;28;20007;-75
2022/07/17 11:27:09;;;;;;;;;;;;;;;;;;5103896;27;20053;-76
2022/07/17 11:29:35;;;;;;;;;;;;;;;;;;5106175;28;19942;-76
2022/07/17 11:32:01;;;;;;;;;;;;;;;;;;5096321;27;19928;-76
2022/07/17 11:34:27;;;;;;;;;;;;;;;;;;5095428;28;19927;-76
2022/07/17 11:36:53;;;;;;;;;;;;;;;;;;5115463;27;20293;-76
2022/07/17 11:39:19;;;;;;;;;;;;;;;;;;5111918;28;20023;-77
2022/07/17 11:41:46;;;;;;;;;;;;;;;;;;5110382;27;19927;-76
2022/07/17 11:44:12;;;;;;;;;;;;;;;;;;5114598;28;19927;-77
2022/07/17 11:46:37;;;;;;;;;;;;;;;;;;5106987;27;19920;-76
2022/07/17 11:49:03;;;;;;;;;;;;;;;;;;5095383;27;19974;-76
2022/07/17 11:51:29;;;;;;;;;;;;;;;;;;5114166;27;19970;-78
2022/07/17 11:53:55;;;;;;;;;;;;;;;;;;5093458;28;19981;-76
2022/07/17 11:56:21;;;;;;;;;;;;;;;;;;5110306;27;19973;-76
2022/07/17 11:58:47;;;;;;;;;;;;;;;;;;5111694;27;19934;-79
2022/07/17 12:01:13;;;;;;;;;;;;;;;;;;5119041;27;19920;-78
2022/07/17 12:03:39;;;;;;;;;;;;;;;;;;5107502;28;19963;-80
2022/07/17 12:06:05;;;;;;;;;;;;;;;;;;5100297;28;19939;-79
2022/07/17 12:08:31;;;;;;;;;;;;;;;;;;5102598;28;19919;-79
2022/07/17 12:10:57;;;;;;;;;;;;;;;;;;5114003;27;19920;-82
2022/07/17 12:13:23;;;;;;;;;;;;;;;;;;5119826;27;19919;-86
2022/07/17 12:15:49;;;;;;;;;;;;;;;;;;5105956;27;19920;-79
2022/07/17 12:18:15;;;;;;;;;;;;;;;;;;5116298;27;20134;-79
2022/07/17 12:20:42;;;;;;;;;;;;;;;;;;5124530;27;19924;-80
2022/07/17 12:23:08;;;;;;;;;;;;;;;;;;5125317;27;20384;-79
2022/07/17 12:25:33;;;;;;;;;;;;;;;;;;5104998;27;20005;-78
2022/07/17 12:27:59;;;;;;;;;;;;;;;;;;5093625;28;20294;-76
2022/07/17 12:30:25;;;;;;;;;;;;;;;;;;5107945;27;19959;-75
2022/07/17 12:32:51;;;;;;;;;;;;;;;;;;5100870;28;19924;-75
2022/07/17 12:35:17;;;;;;;;;;;;;;;;;;5102488;28;19974;-74
2022/07/17 12:37:43;;;;;;;;;;;;;;;;;;5102896;28;19920;-76
2022/07/17 12:40:09;;;;;;;;;;;;;;;;;;5119644;27;20010;-75
2022/07/17 12:42:35;;;;;;;;;;;;;;;;;;5109757;27;19942;-75
2022/07/17 12:45:02;;;;;;;;;;;;;;;;;;5115393;27;19927;-79
2022/07/17 12:47:28;;;;;;;;;;;;;;;;;;5119304;27;19920;-80
2022/07/17 12:49:54;;;;;;;;;;;;;;;;;;5106260;27;19994;-79
2022/07/17 12:52:20;;;;;;;;;;;;;;;;;;5111820;27;19963;-79
2022/07/17 12:54:46;;;;;;;;;;;;;;;;;;5114887;27;20389;-78
2022/07/17 12:57:12;;;;;;;;;;;;;;;;;;5113011;27;19954;-78
2022/07/17 12:59:38;;;;;;;;;;;;;;;;;;5111820;28;20433;-79
2022/07/17 13:02:04;;;;;;;;;;;;;;;;;;5101847;28;19920;-81
2022/07/17 13:04:30;;;;;;;;;;;;;;;;;;5108175;28;19927;-81
2022/07/17 13:06:56;;;;;;;;;;;;;;;;;;5092914;28;19924;-79
2022/07/17 13:09:22;;;;;;;;;;;;;;;;;;5092664;28;19920;-77
2022/07/17 13:11:48;;;;;;;;;;;;;;;;;;5093233;28;19945;-77
2022/07/17 13:14:14;;;;;;;;;;;;;;;;;;5097826;27;19920;-79
2022/07/17 13:16:39;;;;;;;;;;;;;;;;;;5109859;28;19920;-80
2022/07/17 13:19:05;;;;;;;;;;;;;;;;;;5110450;28;19934;-80
2022/07/17 13:21:31;;;;;;;;;;;;;;;;;;5107552;28;19966;-78
2022/07/17 13:23:58;;;;;;;;;;;;;;;;;;5092207;28;19973;-78
2022/07/17 13:26:24;;;;;;;;;;;;;;;;;;5093286;28;20423;-78
2022/07/17 13:28:49;;;;;;;;;;;;;;;;;;5092662;28;19967;-76
2022/07/17 13:31:16;;;;;;;;;;;;;;;;;;5130282;27;20479;-80
2022/07/17 13:33:42;;;;;;;;;;;;;;;;;;5110088;28;20362;-81
2022/07/17 13:36:08;;;;;;;;;;;;;;;;;;5110785;28;19928;-79
2022/07/17 13:38:34;;;;;;;;;;;;;;;;;;5107896;28;19971;-83
2022/07/17 13:40:59;;;;;;;;;;;;;;;;;;5107980;28;19919;-82
2022/07/17 13:43:25;;;;;;;;;;;;;;;;;;5110972;28;19943;-81
2022/07/17 13:45:51;;;;;;;;;;;;;;;;;;5112309;27;20290;-79
2022/07/17 13:48:18;;;;;;;;;;;;;;;;;;5111609;28;19920;-81
2022/07/17 13:50:44;;;;;;;;;;;;;;;;;;5107179;28;19919;-80
2022/07/17 13:53:11;;;;;;;;;;;;;;;;;;5111716;28;20004;-80
2022/07/17 13:55:37;;;;;;;;;;;;;;;;;;5110236;28;20002;-80
2022/07/17 13:58:03;;;;;;;;;;;;;;;;;;5104221;28;19924;-82
2022/07/17 14:00:30;;;;;;;;;;;;;;;;;;5092715;28;19924;-82
2022/07/17 14:02:56;;;;;;;;;;;;;;;;;;5097957;28;19965;-82
2022/07/17 14:05:22;;;;;;;;;;;;;;;;;;5092925;28;20323;-82
2022/07/17 14:07:48;;;;;;;;;;;;;;;;;;5095554;28;19980;-84
2022/07/17 14:10:14;;;;;;;;;;;;;;;;;;5088735;28;19974;-76
2022/07/17 14:12:40;;;;;;;;;;;;;;;;;;5111880;28;19919;-78
2022/07/17 14:15:07;;;;;;;;;;;;;;;;;;5107278;28;20417;-82
2022/07/17 14:17:33;;;;;;;;;;;;;;;;;;5140405;27;20243;-89
2022/07/17 14:19:59;;;;;;;;;;;;;;;;;;5102532;28;19926;-80
2022/07/17 14:22:25;;;;;;;;;;;;;;;;;;5098519;28;20360;-78
2022/07/17 14:24:51;;;;;;;;;;;;;;;;;;5105663;28;19927;-79
2022/07/17 14:27:16;;;;;;;;;;;;;;;;;;5106758;28;19967;-80
2022/07/17 14:29:42;;;;;;;;;;;;;;;;;;5099222;28;19969;-81
2022/07/17 14:32:08;;;;;;;;;;;;;;;;;;5096711;28;19919;-83
2022/07/17 14:34:34;;;;;;;;;;;;;;;;;;5104254;28;19924;-82
2022/07/17 14:37:02;;;;;;;;;;;;;;;;;;5091068;28;19981;-83
2022/07/17 14:39:28;;;;;;;;;;;;;;;;;;5095390;28;20002;-78
2022/07/17 14:41:54;;;;;;;;;;;;;;;;;;5105623;28;20006;-78
2022/07/17 14:44:20;;;;;;;;;;;;;;;;;;5091463;28;20421;-78
2022/07/17 14:46:46;;;;;;;;;;;;;;;;;;5091964;28;19927;-82
2022/07/17 14:49:12;;;;;;;;;;;;;;;;;;5090954;28;19920;-81
2022/07/17 14:51:38;;;;;;;;;;;;;;;;;;5091236;28;19920;-81
2022/07/17 14:54:04;;;;;;;;;;;;;;;;;;5090714;28;19920;-75
2022/07/17 14:56:30;;;;;;;;;;;;;;;;;;5100168;28;19926;-80
2022/07/17 14:58:56;;;;;;;;;;;;;;;;;;5110161;28;19931;-80
2022/07/17 15:01:22;;;;;;;;;;;;;;;;;;5097505;28;20003;-79
2022/07/17 15:03:48;;;;;;;;;;;;;;;;;;5100509;28;19920;-81
2022/07/17 15:06:14;;;;;;;;;;;;;;;;;;5089112;28;19927;-80
2022/07/17 15:08:40;;;;;;;;;;;;;;;;;;5101267;28;19920;-81
2022/07/17 15:11:06;;;;;;;;;;;;;;;;;;5103135;28;19924;-80
2022/07/17 15:13:32;;;;;;;;;;;;;;;;;;5114941;28;20035;-82
2022/07/17 15:15:58;;;;;;;;;;;;;;;;;;5121861;28;20374;-83
2022/07/17 15:18:24;;;;;;;;;;;;;;;;;;5108116;28;20278;-85
2022/07/17 15:20:50;;;;;;;;;;;;;;;;;;5091393;28;19919;-90
2022/07/17 15:23:16;;;;;;;;;;;;;;;;;;5115361;28;19976;-79
2022/07/17 15:25:42;;;;;;;;;;;;;;;;;;5101137;27;19924;-82
2022/07/17 15:28:08;;;;;;;;;;;;;;;;;;5098390;28;19999;-81
2022/07/17 15:30:34;;;;;;;;;;;;;;;;;;5108353;28;20007;-88
2022/07/17 15:33:00;;;;;;;;;;;;;;;;;;5111257;28;19928;-85
2022/07/17 15:35:26;;;;;;;;;;;;;;;;;;5110281;27;19943;-83
2022/07/17 15:37:53;;;;;;;;;;;;;;;;;;5104162;27;20361;-83
2022/07/17 15:40:19;;;;;;;;;;;;;;;;;;5131425;27;19920;-81
2022/07/17 15:42:45;;;;;;;;;;;;;;;;;;5107503;27;19987;-83
2022/07/17 15:45:11;;;;;;;;;;;;;;;;;;5134672;27;20330;-82
2022/07/17 15:47:37;;;;;;;;;;;;;;;;;;5116156;27;19920;-82
2022/07/17 15:50:03;;;;;;;;;;;;;;;;;;5114807;28;20285;-87
2022/07/17 15:52:29;;;;;;;;;;;;;;;;;;5099589;28;19923;-87
2022/07/17 15:54:55;;;;;;;;;;;;;;;;;;5099709;27;19920;-84
2022/07/17 15:57:21;;;;;;;;;;;;;;;;;;5112458;27;20286;-85
2022/07/17 15:59:47;;;;;;;;;;;;;;;;;;5108154;27;19919;-77
2022/07/17 16:02:13;;;;;;;;;;;;;;;;;;5127007;27;19983;-80
2022/07/17 16:04:39;;;;;;;;;;;;;;;;;;5096182;27;20332;-79
2022/07/17 16:07:05;;;;;;;;;;;;;;;;;;5096259;28;19920;-89
2022/07/17 16:09:31;;;;;;;;;;;;;;;;;;5099679;28;20281;-84
2022/07/17 16:11:57;;;;;;;;;;;;;;;;;;5116495;27;20026;-81
2022/07/17 16:14:23;;;;;;;;;;;;;;;;;;5107442;28;19924;-82
2022/07/17 16:16:49;;;;;;;;;;;;;;;;;;5106821;27;19928;-81
2022/07/17 16:19:15;;;;;;;;;;;;;;;;;;5117059;27;19942;-83
2022/07/17 16:21:42;;;;;;;;;;;;;;;;;;5125738;27;19959;-86
2022/07/17 16:24:08;;;;;;;;;;;;;;;;;;5100094;27;19926;-79
2022/07/17 16:26:34;;;;;;;;;;;;;;;;;;5094499;28;19942;-82
2022/07/17 16:29:00;;;;;;;;;;;;;;;;;;5120768;27;19993;-80
2022/07/17 16:31:26;;;;;;;;;;;;;;;;;;5111525;27;20394;-81
2022/07/17 16:33:52;;;;;;;;;;;;;;;;;;5099356;28;20010;-81
2022/07/17 16:36:18;;;;;;;;;;;;;;;;;;5099191;27;19920;-81